createdAt,value
2023-02-01T17:52:50.292Z,5.15
2023-02-01T17:53:50.163Z,5.15
2023-02-01T17:54:50.142Z,5.15
2023-02-01T17:55:50.117Z,5.15
2023-02-01T17:56:50.083Z,5.15
2023-02-01T17:57:50.040Z,5.14
2023-02-01T17:58:50.077Z,5.21
2023-02-01T17:59:50.239Z,5.36
2023-02-01T18:00:50.204Z,5.32
2023-02-01T18:01:50.248Z,5.3
2023-02-01T18:02:50.090Z,5.35
2023-02-01T18:03:49.872Z,5.43
2023-02-01T18:04:49.834Z,5.53
2023-02-01T18:05:49.789Z,5.41
2023-02-01T18:06:49.768Z,5.41
2023-02-01T18:07:49.743Z,5.53
2023-02-01T18:08:49.789Z,5.48
2023-02-01T18:09:49.715Z,5.61
2023-02-01T18:10:49.657Z,5.61
2023-02-01T18:11:49.634Z,5.65
2023-02-01T18:12:49.617Z,5.71
2023-02-01T18:13:49.593Z,5.69
2023-02-01T18:14:49.582Z,5.68
2023-02-01T18:15:49.531Z,5.76
2023-02-01T18:16:49.688Z,5.82
2023-02-01T18:17:49.506Z,5.76
2023-02-01T18:18:49.437Z,5.82
2023-02-01T18:19:49.432Z,5.8
2023-02-01T18:20:49.387Z,5.79
2023-02-01T18:21:49.356Z,5.8
2023-02-01T18:22:49.537Z,5.84
2023-02-01T18:23:49.629Z,5.75
2023-02-01T18:24:49.516Z,5.83
2023-02-01T18:25:49.247Z,5.75
2023-02-01T18:26:49.419Z,5.72
2023-02-01T18:27:49.194Z,5.69
2023-02-01T18:28:49.187Z,5.68
2023-02-01T18:29:49.152Z,5.72
2023-02-01T18:30:49.488Z,5.72
2023-02-01T18:31:49.447Z,5.69
2023-02-01T18:32:49.083Z,5.71
2023-02-01T18:33:49.035Z,5.64
2023-02-01T18:34:48.996Z,5.69
2023-02-01T18:35:48.970Z,5.59
2023-02-01T18:36:48.945Z,5.5
2023-02-01T18:37:48.915Z,5.5
2023-02-01T18:38:48.940Z,5.43
2023-02-01T18:39:48.857Z,5.3
2023-02-01T18:40:48.911Z,5.28
2023-02-01T18:41:48.805Z,5.3
2023-02-01T18:42:48.796Z,5.33
2023-02-01T18:43:48.768Z,5.21
2023-02-01T18:44:48.487Z,5.3
2023-02-01T18:45:48.814Z,5.12
2023-02-01T18:46:48.439Z,5.15
2023-02-01T18:47:48.642Z,5.21
2023-02-01T18:48:48.660Z,5.15
2023-02-01T18:49:48.600Z,5.21
2023-02-01T18:50:48.567Z,5.33
2023-02-01T18:51:48.552Z,5.33
2023-02-01T18:52:48.507Z,5.25
2023-02-01T18:53:48.508Z,5.17
2023-02-01T18:55:03.362Z,5.17
2023-02-01T18:55:48.517Z,5.15
2023-02-01T18:56:48.481Z,5.15
2023-02-01T18:57:48.367Z,5.14
2023-02-01T18:58:48.390Z,5.28
2023-02-01T18:59:48.321Z,5.29
2023-02-01T19:00:48.308Z,5.23
2023-02-01T19:01:49.784Z,5.23
2023-02-01T19:02:48.498Z,5.26
2023-02-01T19:04:15.077Z,5.17
2023-02-01T19:04:48.204Z,5.26
2023-02-01T19:05:48.156Z,5.15
2023-02-01T19:06:48.132Z,5.26
2023-02-01T19:07:47.878Z,5.2
2023-02-01T19:08:48.096Z,5.3
2023-02-01T19:09:48.046Z,5.26
2023-02-01T19:10:48.020Z,5.2
2023-02-01T19:11:47.996Z,5.18
2023-02-01T19:12:48.060Z,5.26
2023-02-01T19:13:47.934Z,5.26
2023-02-01T19:14:47.934Z,5.28
2023-02-01T19:15:47.989Z,5.18
2023-02-01T19:16:47.847Z,5.28
2023-02-01T19:17:47.868Z,5.17
2023-02-01T19:18:47.795Z,5.28
2023-02-01T19:19:47.779Z,5.28
2023-02-01T19:20:47.808Z,5.15
2023-02-01T19:21:47.714Z,5.28
2023-02-01T19:22:47.701Z,5.17
2023-02-01T19:23:47.682Z,5.25
2023-02-01T19:24:47.661Z,5.15
2023-02-01T19:25:47.599Z,5.23
2023-02-01T19:26:47.652Z,5.17
2023-02-01T19:27:47.333Z,5.18
2023-02-01T19:28:47.613Z,5.18
2023-02-01T19:29:47.258Z,5.18
2023-02-01T19:30:47.846Z,5.21
2023-02-01T19:31:47.638Z,5.25
2023-02-01T19:32:47.430Z,5.21
2023-02-01T19:33:47.443Z,5.21
2023-02-01T19:34:47.364Z,5.23
2023-02-01T19:35:47.330Z,5.33
2023-02-01T19:36:47.341Z,5.29
2023-02-01T19:37:47.281Z,5.32
2023-02-01T19:38:47.246Z,5.29
2023-02-01T19:39:47.244Z,5.32
2023-02-01T19:40:46.979Z,5.43
2023-02-01T19:41:47.199Z,5.44
2023-02-01T19:42:47.179Z,5.39
2023-02-01T19:43:47.127Z,5.39
2023-02-01T19:44:47.181Z,5.43
2023-02-01T19:45:47.052Z,5.39
2023-02-01T19:46:47.282Z,5.36
2023-02-01T19:47:47.002Z,5.44
2023-02-01T19:48:46.977Z,5.5
2023-02-01T19:49:46.990Z,5.43
2023-02-01T19:50:47.126Z,5.5
2023-02-01T19:51:46.888Z,5.56
2023-02-01T19:52:46.859Z,5.59
2023-02-01T19:53:46.835Z,5.61
2023-02-01T19:54:46.807Z,5.61
2023-02-01T19:55:46.782Z,5.68
2023-02-01T19:56:46.763Z,5.66
2023-02-01T19:57:46.747Z,5.65
2023-02-01T19:58:46.696Z,5.71
2023-02-01T19:59:46.716Z,5.69
2023-02-01T20:00:45.904Z,5.73
2023-02-01T20:01:45.914Z,5.71
2023-02-01T20:02:45.866Z,5.73
2023-02-01T20:03:45.707Z,5.75
2023-02-01T20:04:45.679Z,5.87
2023-02-01T20:05:45.652Z,5.86
2023-02-01T20:06:45.618Z,5.83
2023-02-01T20:07:45.589Z,5.84
2023-02-01T20:08:45.694Z,5.82
2023-02-01T20:09:45.547Z,5.84
2023-02-01T20:10:45.517Z,5.83
2023-02-01T20:11:45.493Z,5.86
2023-02-01T20:12:45.479Z,5.86
2023-02-01T20:13:45.442Z,5.87
2023-02-01T20:14:45.435Z,5.84
2023-02-01T20:15:45.416Z,5.84
2023-02-01T20:16:45.444Z,5.8
2023-02-01T20:17:45.336Z,5.86
2023-02-01T20:18:45.331Z,5.9
2023-02-01T20:19:45.285Z,5.89
2023-02-01T20:20:45.316Z,5.86
2023-02-01T20:21:45.014Z,5.83
2023-02-01T20:22:45.223Z,5.79
2023-02-01T20:23:46.405Z,5.86
2023-02-01T20:24:45.161Z,5.82
2023-02-01T20:25:46.051Z,5.8
2023-02-01T20:26:46.197Z,5.9
2023-02-01T20:27:45.949Z,5.82
2023-02-01T20:28:46.027Z,5.9
2023-02-01T20:29:45.899Z,5.89
2023-02-01T20:30:45.949Z,5.84
2023-02-01T20:31:46.171Z,5.89
2023-02-01T20:32:45.900Z,5.9
2023-02-01T20:33:45.813Z,5.84
2023-02-01T20:34:45.775Z,5.86
2023-02-01T20:35:45.761Z,5.8
2023-02-01T20:36:45.731Z,5.75
2023-02-01T20:37:45.697Z,5.73
2023-02-01T20:38:45.667Z,5.83
2023-02-01T20:39:45.652Z,5.75
2023-02-01T20:40:45.633Z,5.71
2023-02-01T20:41:45.597Z,5.71
2023-02-01T20:42:45.579Z,5.75
2023-02-01T20:43:45.545Z,5.79
2023-02-01T20:44:45.518Z,5.72
2023-02-01T20:45:45.497Z,5.8
2023-02-01T20:46:45.610Z,5.8
2023-02-01T20:47:45.475Z,5.75
2023-02-01T20:48:45.504Z,5.73
2023-02-01T20:49:45.469Z,5.8
2023-02-01T20:50:45.398Z,5.69
2023-02-01T20:51:45.354Z,5.71
2023-02-01T20:52:45.370Z,5.71
2023-02-01T20:53:45.359Z,5.71
2023-02-01T20:54:45.087Z,5.73
2023-02-01T20:55:45.260Z,5.71
2023-02-01T20:56:45.241Z,5.69
2023-02-01T20:57:45.211Z,5.54
2023-02-01T20:58:45.242Z,5.61
2023-02-01T20:59:45.158Z,5.64
2023-02-01T21:00:45.305Z,5.64
2023-02-01T21:01:45.189Z,5.57
2023-02-01T21:02:45.097Z,5.54
2023-02-01T21:03:45.068Z,5.59
2023-02-01T21:04:45.117Z,5.64
2023-02-01T21:05:45.017Z,5.62
2023-02-01T21:06:44.995Z,5.56
2023-02-01T21:07:44.973Z,5.57
2023-02-01T21:08:44.967Z,5.62
2023-02-01T21:09:44.916Z,5.59
2023-02-01T21:10:44.893Z,5.64
2023-02-01T21:11:44.877Z,5.51
2023-02-01T21:12:44.902Z,5.54
2023-02-01T21:13:44.812Z,5.5
2023-02-01T21:14:44.805Z,5.5
2023-02-01T21:15:44.770Z,5.5
2023-02-01T21:16:44.826Z,5.54
2023-02-01T21:17:44.729Z,5.53
2023-02-01T21:18:44.733Z,5.56
2023-02-01T21:19:44.708Z,5.56
2023-02-01T21:20:44.725Z,5.64
2023-02-01T21:21:44.723Z,5.54
2023-02-01T21:22:44.586Z,5.62
2023-02-01T21:23:44.574Z,5.61
2023-02-01T21:24:44.549Z,5.61
2023-02-01T21:25:44.517Z,5.59
2023-02-01T21:26:44.877Z,5.56
2023-02-01T21:27:44.459Z,5.59
2023-02-01T21:28:44.436Z,5.61
2023-02-01T21:29:44.412Z,5.62
2023-02-01T21:30:44.257Z,5.57
2023-02-01T21:31:44.557Z,5.54
2023-02-01T21:32:44.342Z,5.62
2023-02-01T21:33:44.309Z,5.56
2023-02-01T21:34:44.280Z,5.56
2023-02-01T21:35:44.256Z,5.5
2023-02-01T21:36:44.348Z,5.44
2023-02-01T21:37:44.208Z,5.48
2023-02-01T21:38:44.180Z,5.56
2023-02-01T21:39:44.197Z,5.5
2023-02-01T21:40:44.131Z,5.46
2023-02-01T21:41:44.120Z,5.38
2023-02-01T21:42:44.090Z,5.36
2023-02-01T21:43:44.056Z,5.29
2023-02-01T21:44:44.033Z,5.3
2023-02-01T21:45:53.662Z,5.26
2023-02-01T21:46:43.973Z,5.29
2023-02-01T21:47:44.787Z,5.3
2023-02-01T21:49:09.831Z,5.25
2023-02-01T21:49:44.217Z,5.29
2023-02-01T21:50:43.970Z,5.14
2023-02-01T21:51:43.883Z,5.15
2023-02-01T21:52:43.952Z,5.18
2023-02-01T21:53:44.537Z,5.2
2023-02-01T21:54:43.949Z,5.26
2023-02-01T21:55:43.750Z,5.2
2023-02-01T21:56:43.746Z,5.28
2023-02-01T21:57:43.707Z,5.15
2023-02-01T21:58:43.674Z,5.18
2023-02-01T21:59:43.658Z,5.18
2023-02-01T22:00:43.629Z,5.15
2023-02-01T22:01:43.606Z,5.17
2023-02-01T22:02:43.841Z,5.14
2023-02-01T22:03:43.572Z,5.08
2023-02-01T22:04:43.553Z,5.17
2023-02-01T22:05:43.488Z,5.12
2023-02-01T22:06:43.477Z,5.2
2023-02-01T22:07:43.444Z,5.15
2023-02-01T22:08:43.492Z,5.11
2023-02-01T22:09:43.389Z,5.11
2023-02-01T22:10:43.372Z,5.14
2023-02-01T22:11:43.342Z,5.08
2023-02-01T22:12:43.313Z,5.07
2023-02-01T22:13:43.298Z,5.14
2023-02-01T22:14:43.275Z,5.05
2023-02-01T22:15:43.002Z,5.04
2023-02-01T22:16:43.473Z,5.07
2023-02-01T22:17:43.190Z,5
2023-02-01T22:18:43.169Z,5.05
2023-02-01T22:19:43.142Z,5.02
2023-02-01T22:20:43.113Z,4.97
2023-02-01T22:21:43.093Z,4.97
2023-02-01T22:22:43.076Z,4.94
2023-02-01T22:23:43.052Z,4.93
2023-02-01T22:24:43.096Z,4.93
2023-02-01T22:25:43.004Z,4.9
2023-02-01T22:26:43.065Z,4.96
2023-02-01T22:28:38.112Z,4.93
2023-02-01T22:28:48.047Z,4.96
2023-02-01T22:29:48.188Z,5
2023-02-01T22:30:48.190Z,4.93
2023-02-01T22:31:48.455Z,4.93
2023-02-01T22:32:47.963Z,4.94
2023-02-01T22:33:47.917Z,4.93
2023-02-01T22:34:47.918Z,4.99
2023-02-01T22:35:47.858Z,5
2023-02-01T22:36:47.851Z,5
2023-02-01T22:37:47.816Z,4.86
2023-02-01T22:38:47.802Z,4.92
2023-02-01T22:39:47.843Z,4.96
2023-02-01T22:40:47.737Z,4.97
2023-02-01T22:41:47.719Z,4.89
2023-02-01T22:42:47.688Z,4.99
2023-02-01T22:43:47.689Z,4.96
2023-02-01T22:44:47.644Z,5.04
2023-02-01T22:45:47.882Z,5.02
2023-02-01T22:46:47.597Z,4.97
2023-02-01T22:47:47.576Z,5.04
2023-02-01T22:48:47.528Z,5.05
2023-02-01T22:49:47.513Z,5.07
2023-02-01T22:50:47.475Z,5.02
2023-02-01T22:51:47.470Z,5.05
2023-02-01T22:52:47.439Z,5
2023-02-01T22:53:47.421Z,5.1
2023-02-01T22:54:47.426Z,5.07
2023-02-01T22:55:47.438Z,5.14
2023-02-01T22:56:47.324Z,5.14
2023-02-01T22:57:47.501Z,5.14
2023-02-01T22:58:47.277Z,5.14
2023-02-01T22:59:47.254Z,5.15
2023-02-01T23:00:47.225Z,5.2
2023-02-01T23:01:47.216Z,5.14
2023-02-01T23:02:47.315Z,5.17
2023-02-01T23:03:47.062Z,5.25
2023-02-01T23:04:47.117Z,5.17
2023-02-01T23:05:47.103Z,5.15
2023-02-01T23:06:47.152Z,5.26
2023-02-01T23:07:47.042Z,5.21
2023-02-01T23:08:47.040Z,5.35
2023-02-01T23:09:46.751Z,5.29
2023-02-01T23:10:46.963Z,5.26
2023-02-01T23:11:47.046Z,5.29
2023-02-01T23:12:46.919Z,5.28
2023-02-01T23:13:46.882Z,5.28
2023-02-01T23:14:46.861Z,5.29
2023-02-01T23:15:46.710Z,5.35
2023-02-01T23:16:46.809Z,5.29
2023-02-01T23:17:46.813Z,5.29
2023-02-01T23:18:46.756Z,5.29
2023-02-01T23:19:46.732Z,5.26
2023-02-01T23:20:46.709Z,5.29
2023-02-01T23:21:46.702Z,5.29
2023-02-01T23:22:46.661Z,5.32
2023-02-01T23:23:46.645Z,5.29
2023-02-01T23:24:46.608Z,5.32
2023-02-01T23:25:46.584Z,5.33
2023-02-01T23:26:46.848Z,5.33
2023-02-01T23:27:46.618Z,5.29
2023-02-01T23:28:46.521Z,5.32
2023-02-01T23:29:46.491Z,5.46
2023-02-01T23:30:46.636Z,5.41
2023-02-01T23:31:46.834Z,5.41
2023-02-01T23:32:46.428Z,5.41
2023-02-01T23:33:46.410Z,5.43
2023-02-01T23:34:46.426Z,5.44
2023-02-01T23:35:46.344Z,5.39
2023-02-01T23:36:46.342Z,5.48
2023-02-01T23:37:46.302Z,5.53
2023-02-01T23:38:46.272Z,5.48
2023-02-01T23:39:46.252Z,5.5
2023-02-01T23:40:46.211Z,5.39
2023-02-01T23:41:46.194Z,5.5
2023-02-01T23:42:46.167Z,5.48
2023-02-01T23:43:46.410Z,5.44
2023-02-01T23:44:46.114Z,5.54
2023-02-01T23:45:46.100Z,5.5
2023-02-01T23:46:46.332Z,5.53
2023-02-01T23:47:46.029Z,5.48
2023-02-01T23:48:46.012Z,5.5
2023-02-01T23:49:45.978Z,5.51
2023-02-01T23:50:45.706Z,5.53
2023-02-01T23:51:45.921Z,5.51
2023-02-01T23:52:45.905Z,5.5
2023-02-01T23:53:45.888Z,5.5
2023-02-01T23:54:45.851Z,5.5
2023-02-01T23:55:45.833Z,5.43
2023-02-01T23:56:45.795Z,5.48
2023-02-01T23:57:45.808Z,5.5
2023-02-01T23:58:45.746Z,5.5
2023-02-01T23:59:45.807Z,5.5
